createdAt,value
2023-05-02T00:00:20.316Z,21.48
2023-05-02T00:01:20.395Z,21.50
2023-05-02T00:02:20.428Z,21.52
2023-05-02T00:03:20.480Z,21.53
2023-05-02T00:04:20.533Z,21.53
2023-05-02T00:05:20.534Z,21.54
2023-05-02T00:06:20.679Z,21.53
2023-05-02T00:07:20.639Z,21.53
2023-05-02T00:08:20.704Z,21.54
2023-05-02T00:09:20.746Z,21.54
2023-05-02T00:10:20.799Z,21.54
2023-05-02T00:11:20.838Z,21.54
2023-05-02T00:12:20.911Z,21.54
2023-05-02T00:13:20.951Z,21.55
2023-05-02T00:14:21.007Z,21.54
2023-05-02T00:15:21.067Z,21.54
2023-05-02T00:16:21.151Z,21.53
2023-05-02T00:17:21.407Z,21.53
2023-05-02T00:18:21.229Z,21.53
2023-05-02T00:19:21.274Z,21.53
2023-05-02T00:20:21.349Z,21.53
2023-05-02T00:21:21.389Z,21.53
2023-05-02T00:22:21.447Z,21.53
2023-05-02T00:23:21.507Z,21.52
2023-05-02T00:24:21.559Z,21.52
2023-05-02T00:25:21.616Z,21.52
2023-05-02T00:26:21.681Z,21.52
2023-05-02T00:27:21.741Z,21.51
2023-05-02T00:28:21.942Z,21.50
2023-05-02T00:29:21.885Z,21.51
2023-05-02T00:30:21.942Z,21.50
2023-05-02T00:31:22.064Z,21.50
2023-05-02T00:32:22.107Z,21.50
2023-05-02T00:33:22.093Z,21.50
2023-05-02T00:34:22.164Z,21.49
2023-05-02T00:35:22.235Z,21.49
2023-05-02T00:36:22.285Z,21.49
2023-05-02T00:37:22.347Z,21.48
2023-05-02T00:38:22.405Z,21.48
2023-05-02T00:39:22.460Z,21.48
2023-05-02T00:40:22.524Z,21.47
2023-05-02T00:41:22.590Z,21.46
2023-05-02T00:42:22.660Z,21.47
2023-05-02T00:43:22.711Z,21.47
2023-05-02T00:44:22.896Z,21.48
2023-05-02T00:45:22.848Z,21.48
2023-05-02T00:46:22.955Z,21.47
2023-05-02T00:47:22.962Z,21.46
2023-05-02T00:48:23.027Z,21.46
2023-05-02T00:49:23.099Z,21.46
2023-05-02T00:50:23.143Z,21.46
2023-05-02T00:51:23.203Z,21.46
2023-05-02T00:52:23.257Z,21.45
2023-05-02T00:53:23.314Z,21.45
2023-05-02T00:54:23.372Z,21.44
2023-05-02T00:55:23.434Z,21.45
2023-05-02T00:56:23.507Z,21.45
2023-05-02T00:57:23.566Z,21.45
2023-05-02T00:58:23.611Z,21.44
2023-05-02T00:59:23.679Z,21.45
2023-05-02T01:00:23.760Z,21.44
2023-05-02T01:01:23.809Z,21.44
2023-05-02T01:02:24.004Z,21.43
2023-05-02T01:03:24.032Z,21.43
2023-05-02T01:04:23.993Z,21.43
2023-05-02T01:05:24.049Z,21.43
2023-05-02T01:06:24.185Z,21.42
2023-05-02T01:07:24.177Z,21.42
2023-05-02T01:08:24.241Z,21.42
2023-05-02T01:09:24.305Z,21.42
2023-05-02T01:10:24.382Z,21.42
2023-05-02T01:11:24.438Z,21.42
2023-05-02T01:12:24.510Z,21.43
2023-05-02T01:13:24.554Z,21.43
2023-05-02T01:14:24.621Z,21.42
2023-05-02T01:15:24.676Z,21.41
2023-05-02T01:16:24.775Z,21.42
2023-05-02T01:17:24.848Z,21.42
2023-05-02T01:18:24.876Z,21.41
2023-05-02T01:19:24.927Z,21.42
2023-05-02T01:20:24.984Z,21.42
2023-05-02T01:21:25.048Z,21.42
2023-05-02T01:22:25.107Z,21.42
2023-05-02T01:23:25.178Z,21.42
2023-05-02T01:24:25.221Z,21.41
2023-05-02T01:25:25.293Z,21.40
2023-05-02T01:26:25.347Z,21.41
2023-05-02T01:27:25.402Z,21.40
2023-05-02T01:28:25.457Z,21.41
2023-05-02T01:29:25.526Z,21.41
2023-05-02T01:30:25.593Z,21.41
2023-05-02T01:31:25.707Z,21.42
2023-05-02T01:32:25.820Z,21.42
2023-05-02T01:33:25.775Z,21.42
2023-05-02T01:34:25.836Z,21.41
2023-05-02T01:35:25.897Z,21.41
2023-05-02T01:36:25.953Z,21.42
2023-05-02T01:37:26.040Z,21.40
2023-05-02T01:38:26.087Z,21.41
2023-05-02T01:39:26.155Z,21.42
2023-05-02T01:40:26.220Z,21.41
2023-05-02T01:41:26.278Z,21.41
2023-05-02T01:42:26.355Z,21.40
2023-05-02T01:43:26.449Z,21.40
2023-05-02T01:44:26.479Z,21.40
2023-05-02T01:45:26.565Z,21.40
2023-05-02T01:46:26.723Z,21.40
2023-05-02T01:47:26.764Z,21.39
2023-05-02T01:48:26.776Z,21.40
2023-05-02T01:49:26.842Z,21.40
2023-05-02T01:50:26.883Z,21.39
2023-05-02T01:51:26.959Z,21.39
2023-05-02T01:52:27.015Z,21.39
2023-05-02T01:53:27.079Z,21.40
2023-05-02T01:54:27.159Z,21.39
2023-05-02T01:55:27.223Z,21.39
2023-05-02T01:56:27.286Z,21.39
2023-05-02T01:57:27.348Z,21.39
2023-05-02T01:58:27.421Z,21.39
2023-05-02T01:59:27.481Z,21.38
2023-05-02T02:00:27.533Z,21.38
2023-05-02T02:01:27.746Z,21.38
2023-05-02T02:02:27.677Z,21.38
2023-05-02T02:03:27.752Z,21.38
2023-05-02T02:04:27.863Z,21.38
2023-05-02T02:05:27.874Z,21.38
2023-05-02T02:06:28.014Z,21.38
2023-05-02T02:07:27.993Z,21.38
2023-05-02T02:08:28.056Z,21.37
2023-05-02T02:09:28.129Z,21.38
2023-05-02T02:10:28.190Z,21.38
2023-05-02T02:11:28.262Z,21.38
2023-05-02T02:12:28.323Z,21.38
2023-05-02T02:13:28.384Z,21.38
2023-05-02T02:14:28.451Z,21.38
2023-05-02T02:15:28.529Z,21.37
2023-05-02T02:16:28.642Z,21.38
2023-05-02T02:17:28.696Z,21.38
2023-05-02T02:18:28.730Z,21.37
2023-05-02T02:19:28.795Z,21.37
2023-05-02T02:20:28.887Z,21.38
2023-05-02T02:21:28.953Z,21.37
2023-05-02T02:22:29.002Z,21.37
2023-05-02T02:23:29.074Z,21.37
2023-05-02T02:24:29.144Z,21.37
2023-05-02T02:25:29.233Z,21.37
2023-05-02T02:26:29.280Z,21.38
2023-05-02T02:27:29.345Z,21.37
2023-05-02T02:28:29.419Z,21.37
2023-05-02T02:29:29.488Z,21.37
2023-05-02T02:30:29.564Z,21.38
2023-05-02T02:31:29.683Z,21.37
2023-05-02T02:32:29.734Z,21.38
2023-05-02T02:33:29.754Z,21.36
2023-05-02T02:34:29.825Z,21.37
2023-05-02T02:35:29.899Z,21.37
2023-05-02T02:36:29.985Z,21.37
2023-05-02T02:37:30.025Z,21.37
2023-05-02T02:38:30.094Z,21.37
2023-05-02T02:39:30.162Z,21.36
2023-05-02T02:40:30.237Z,21.37
2023-05-02T02:41:30.292Z,21.37
2023-05-02T02:42:30.356Z,21.37
2023-05-02T02:43:30.429Z,21.36
2023-05-02T02:44:30.498Z,21.37
2023-05-02T02:45:30.608Z,21.36
2023-05-02T02:46:30.690Z,21.38
2023-05-02T02:47:30.751Z,21.37
2023-05-02T02:48:30.765Z,21.37
2023-05-02T02:49:30.838Z,21.37
2023-05-02T02:50:30.897Z,21.37
2023-05-02T02:51:30.973Z,21.37
2023-05-02T02:52:31.068Z,21.38
2023-05-02T02:53:31.119Z,21.38
2023-05-02T02:54:31.186Z,21.38
2023-05-02T02:55:31.257Z,21.38
2023-05-02T02:56:31.326Z,21.38
2023-05-02T02:57:31.394Z,21.38
2023-05-02T02:58:31.464Z,21.37
2023-05-02T02:59:31.532Z,21.37
2023-05-02T03:00:31.609Z,21.36
2023-05-02T03:01:31.734Z,21.37
2023-05-02T03:02:31.747Z,21.36
2023-05-02T03:03:31.816Z,21.37
2023-05-02T03:04:31.876Z,21.36
2023-05-02T03:05:31.958Z,21.37
2023-05-02T03:06:32.073Z,21.37
2023-05-02T03:07:32.108Z,21.37
2023-05-02T03:08:32.253Z,21.36
2023-05-02T03:09:32.229Z,21.36
2023-05-02T03:10:32.294Z,21.36
2023-05-02T03:11:32.356Z,21.36
2023-05-02T03:12:32.436Z,21.36
2023-05-02T03:13:32.496Z,21.36
2023-05-02T03:14:32.563Z,21.36
2023-05-02T03:15:32.650Z,21.36
2023-05-02T03:16:32.787Z,21.35
2023-05-02T03:17:32.852Z,21.35
2023-05-02T03:18:32.855Z,21.34
2023-05-02T03:19:32.924Z,21.35
2023-05-02T03:20:32.986Z,21.35
2023-05-02T03:21:33.060Z,21.36
2023-05-02T03:22:33.132Z,21.35
2023-05-02T03:23:33.199Z,21.34
2023-05-02T03:24:33.295Z,21.34
2023-05-02T03:25:33.370Z,21.34
2023-05-02T03:26:33.409Z,21.34
2023-05-02T03:27:33.487Z,21.33
2023-05-02T03:28:33.543Z,21.34
2023-05-02T03:29:33.608Z,21.33
2023-05-02T03:30:33.698Z,21.34
2023-05-02T03:31:33.850Z,21.34
2023-05-02T03:32:33.859Z,21.33
2023-05-02T03:33:33.898Z,21.33
2023-05-02T03:34:33.971Z,21.34
2023-05-02T03:35:34.031Z,21.34
2023-05-02T03:36:34.142Z,21.34
2023-05-02T03:37:34.172Z,21.33
2023-05-02T03:38:34.230Z,21.34
2023-05-02T03:39:34.295Z,21.33
2023-05-02T03:40:34.384Z,21.33
2023-05-02T03:41:34.436Z,21.34
2023-05-02T03:42:34.500Z,21.33
2023-05-02T03:43:34.572Z,21.33
2023-05-02T03:44:34.642Z,21.33
2023-05-02T03:45:34.716Z,21.33
2023-05-02T03:46:34.858Z,21.33
2023-05-02T03:47:34.884Z,21.33
2023-05-02T03:48:34.921Z,21.33
2023-05-02T03:49:35.002Z,21.34
2023-05-02T03:50:35.062Z,21.34
2023-05-02T03:51:35.133Z,21.33
2023-05-02T03:52:35.209Z,21.33
2023-05-02T03:53:35.275Z,21.33
2023-05-02T03:54:35.347Z,21.33
2023-05-02T03:55:35.413Z,21.33
2023-05-02T03:56:35.522Z,21.33
2023-05-02T03:57:35.560Z,21.33
2023-05-02T03:58:35.638Z,21.33
2023-05-02T03:59:35.731Z,21.33
2023-05-02T04:00:35.789Z,21.33
2023-05-02T04:01:35.911Z,21.33
2023-05-02T04:02:35.991Z,21.33
2023-05-02T04:03:36.047Z,21.33
2023-05-02T04:04:36.090Z,21.33
2023-05-02T04:05:36.134Z,21.33
2023-05-02T04:06:36.320Z,21.33
2023-05-02T04:07:36.299Z,21.33
2023-05-02T04:08:36.346Z,21.33
2023-05-02T04:09:36.427Z,21.33
2023-05-02T04:10:36.495Z,21.33
2023-05-02T04:11:36.589Z,21.32
2023-05-02T04:12:36.670Z,21.33
2023-05-02T04:13:36.714Z,21.32
2023-05-02T04:14:36.783Z,21.32
2023-05-02T04:15:36.859Z,21.32
2023-05-02T04:16:36.935Z,21.32
2023-05-02T04:17:37.068Z,21.31
2023-05-02T04:18:37.057Z,21.31
2023-05-02T04:19:37.132Z,21.32
2023-05-02T04:20:37.198Z,21.32
2023-05-02T04:21:37.277Z,21.32
2023-05-02T04:22:37.349Z,21.32
2023-05-02T04:23:37.470Z,21.32
2023-05-02T04:24:37.499Z,21.31
2023-05-02T04:25:37.570Z,21.31
2023-05-02T04:26:37.638Z,21.31
2023-05-02T04:27:37.710Z,21.32
2023-05-02T04:28:37.909Z,21.31
2023-05-02T04:29:37.863Z,21.31
2023-05-02T04:30:37.972Z,21.31
2023-05-02T04:31:38.020Z,21.32
2023-05-02T04:32:38.141Z,21.31
2023-05-02T04:33:38.165Z,21.31
2023-05-02T04:34:38.236Z,21.31
2023-05-02T04:35:38.304Z,21.32
2023-05-02T04:36:38.377Z,21.32
2023-05-02T04:37:38.455Z,21.32
2023-05-02T04:38:38.527Z,21.31
2023-05-02T04:39:38.606Z,21.31
2023-05-02T04:40:38.687Z,21.32
2023-05-02T04:41:38.754Z,21.30
2023-05-02T04:42:38.837Z,21.31
2023-05-02T04:43:38.903Z,21.31
2023-05-02T04:44:38.996Z,21.31
2023-05-02T04:45:39.043Z,21.31
2023-05-02T04:46:39.152Z,21.32
2023-05-02T04:47:39.263Z,21.31
2023-05-02T04:48:39.381Z,21.31
2023-05-02T04:49:39.336Z,21.31
2023-05-02T04:50:40.062Z,21.30
2023-05-02T04:51:39.482Z,21.30
2023-05-02T04:52:39.555Z,21.30
2023-05-02T04:53:39.782Z,21.30
2023-05-02T04:54:39.696Z,21.29
2023-05-02T04:55:39.757Z,21.30
2023-05-02T04:56:39.829Z,21.30
2023-05-02T04:57:39.903Z,21.29
2023-05-02T04:58:40.158Z,21.29
2023-05-02T04:59:40.045Z,21.30
2023-05-02T05:00:40.127Z,21.31
2023-05-02T05:01:40.191Z,21.30
2023-05-02T05:02:40.335Z,21.30
2023-05-02T05:03:40.447Z,21.30
2023-05-02T05:04:40.416Z,21.30
2023-05-02T05:05:40.552Z,21.30
2023-05-02T05:06:40.615Z,21.30
2023-05-02T05:07:40.615Z,21.30
2023-05-02T05:08:40.681Z,21.30
2023-05-02T05:09:40.761Z,21.28
2023-05-02T05:10:40.830Z,21.27
2023-05-02T05:11:40.906Z,21.27
2023-05-02T05:12:41.004Z,21.26
2023-05-02T05:13:41.068Z,21.25
2023-05-02T05:14:41.153Z,21.22
2023-05-02T05:15:41.229Z,21.22
2023-05-02T05:16:41.376Z,21.20
2023-05-02T05:17:41.421Z,21.21
2023-05-02T05:18:41.476Z,21.21
2023-05-02T05:19:41.578Z,21.22
2023-05-02T05:20:41.619Z,21.22
2023-05-02T05:21:41.745Z,21.23
2023-05-02T05:22:41.778Z,21.23
2023-05-02T05:23:41.859Z,21.22
2023-05-02T05:24:41.906Z,21.22
2023-05-02T05:25:44.948Z,21.21
2023-05-02T05:26:42.006Z,21.21
2023-05-02T05:27:42.008Z,21.21
2023-05-02T05:28:42.015Z,21.21
2023-05-02T05:29:42.024Z,21.22
2023-05-02T05:30:42.032Z,21.22
2023-05-02T05:31:42.140Z,21.23
2023-05-02T05:32:42.137Z,21.22
2023-05-02T05:33:42.100Z,21.21
2023-05-02T05:34:42.079Z,21.22
2023-05-02T05:35:42.091Z,21.22
2023-05-02T05:36:42.099Z,21.23
2023-05-02T05:37:42.172Z,21.22
2023-05-02T05:38:42.237Z,21.20
2023-05-02T05:39:42.375Z,21.21
2023-05-02T05:40:42.398Z,21.21
2023-05-02T05:41:42.491Z,21.21
2023-05-02T05:42:42.562Z,21.21
2023-05-02T05:43:42.648Z,21.21
2023-05-02T05:44:42.714Z,21.22
2023-05-02T05:45:42.814Z,21.22
2023-05-02T05:46:42.945Z,21.21
2023-05-02T05:47:43.123Z,21.23
2023-05-02T05:48:43.045Z,21.23
2023-05-02T05:49:43.585Z,21.25
2023-05-02T05:50:43.222Z,21.26
2023-05-02T05:51:43.394Z,21.28
2023-05-02T05:52:43.325Z,21.30
2023-05-02T05:53:43.389Z,21.32
2023-05-02T05:54:43.589Z,21.32
2023-05-02T05:55:43.517Z,21.36
2023-05-02T05:56:43.703Z,21.38
2023-05-02T05:57:44.121Z,21.40
2023-05-02T05:58:43.746Z,21.42
2023-05-02T05:59:43.781Z,21.45
2023-05-02T06:00:43.938Z,21.50
2023-05-02T06:01:43.910Z,21.53
2023-05-02T06:02:44.256Z,21.56
2023-05-02T06:03:44.166Z,21.60
2023-05-02T06:04:45.129Z,21.64
2023-05-02T06:05:44.132Z,21.66
2023-05-02T06:06:44.263Z,21.70
2023-05-02T06:07:44.641Z,21.72
2023-05-02T06:08:44.248Z,21.74
2023-05-02T06:09:44.317Z,21.76
2023-05-02T06:10:44.365Z,21.78
2023-05-02T06:11:45.427Z,21.80
2023-05-02T06:12:45.495Z,21.82
2023-05-02T06:13:44.461Z,21.84
2023-05-02T06:14:44.624Z,21.86
2023-05-02T06:15:44.437Z,21.88
2023-05-02T06:16:44.491Z,21.90
2023-05-02T06:17:44.673Z,21.92
2023-05-02T06:18:44.421Z,21.95
2023-05-02T06:19:44.426Z,21.95
2023-05-02T06:20:44.914Z,21.97
2023-05-02T06:21:44.476Z,21.99
2023-05-02T06:22:44.488Z,22.00
2023-05-02T06:23:44.617Z,22.02
2023-05-02T06:24:44.426Z,22.04
2023-05-02T06:25:44.411Z,22.05
2023-05-02T06:26:44.606Z,22.06
2023-05-02T06:27:45.265Z,22.07
2023-05-02T06:28:44.574Z,22.08
2023-05-02T06:29:44.646Z,22.10
2023-05-02T06:30:44.497Z,22.10
2023-05-02T06:31:44.459Z,22.12
2023-05-02T06:32:44.428Z,22.13
2023-05-02T06:33:44.441Z,22.14
2023-05-02T06:34:44.617Z,22.15
2023-05-02T06:35:44.407Z,22.16
2023-05-02T06:36:44.419Z,22.18
2023-05-02T06:37:44.363Z,22.19
2023-05-02T06:38:44.355Z,22.21
2023-05-02T06:39:44.713Z,22.23
2023-05-02T06:40:44.364Z,22.24
2023-05-02T06:41:44.374Z,22.26
2023-05-02T06:42:44.695Z,22.27
2023-05-02T06:43:44.357Z,22.28
2023-05-02T06:44:44.360Z,22.30
2023-05-02T06:45:44.536Z,22.29
2023-05-02T06:46:44.386Z,22.32
2023-05-02T06:47:44.696Z,22.33
2023-05-02T06:48:44.332Z,22.34
2023-05-02T06:49:44.717Z,22.36
2023-05-02T06:50:44.313Z,22.36
2023-05-02T06:51:44.342Z,22.36
2023-05-02T06:52:44.395Z,22.37
2023-05-02T06:53:44.607Z,22.38
2023-05-02T06:54:44.267Z,22.39
2023-05-02T06:55:44.253Z,22.41
2023-05-02T06:56:44.266Z,22.41
2023-05-02T06:57:44.242Z,22.42
2023-05-02T06:58:44.632Z,22.43
2023-05-02T06:59:44.220Z,22.45
2023-05-02T07:00:44.332Z,22.46
2023-05-02T07:01:44.211Z,22.47
2023-05-02T07:02:44.236Z,22.48
2023-05-02T07:03:44.264Z,22.49
2023-05-02T07:04:44.762Z,22.50
2023-05-02T07:05:44.168Z,22.50
2023-05-02T07:06:44.261Z,22.51
2023-05-02T07:07:44.147Z,22.51
2023-05-02T07:08:44.170Z,22.50
2023-05-02T07:09:44.613Z,22.50
2023-05-02T07:10:44.117Z,22.49
2023-05-02T07:11:44.111Z,22.49
2023-05-02T07:12:44.118Z,22.48
2023-05-02T07:13:44.092Z,22.48
2023-05-02T07:14:44.116Z,22.48
2023-05-02T07:15:44.078Z,22.47
2023-05-02T07:16:44.161Z,22.47
2023-05-02T07:17:44.186Z,22.45
2023-05-02T07:18:44.033Z,22.45
2023-05-02T07:19:45.580Z,22.45
2023-05-02T07:20:44.012Z,22.45
2023-05-02T07:21:43.980Z,22.44
2023-05-02T07:22:44.122Z,22.44
2023-05-02T07:23:44.103Z,22.44
2023-05-02T07:24:44.198Z,22.43
2023-05-02T07:25:44.149Z,22.42
2023-05-02T07:26:43.982Z,22.43
2023-05-02T07:27:44.186Z,22.43
2023-05-02T07:28:43.906Z,22.43
2023-05-02T07:29:44.178Z,22.43
2023-05-02T07:30:44.190Z,22.43
2023-05-02T07:31:43.936Z,22.42
2023-05-02T07:32:44.033Z,22.42
2023-05-02T07:33:43.886Z,22.41
2023-05-02T07:34:44.136Z,22.41
2023-05-02T07:35:43.884Z,22.41
2023-05-02T07:36:44.236Z,22.40
2023-05-02T07:37:43.811Z,22.41
2023-05-02T07:38:43.862Z,22.41
2023-05-02T07:39:43.886Z,22.40
2023-05-02T07:40:43.878Z,22.40
2023-05-02T07:41:45.190Z,22.38
2023-05-02T07:42:43.852Z,22.39
2023-05-02T07:43:43.836Z,22.38
2023-05-02T07:44:44.166Z,22.38
2023-05-02T07:45:43.868Z,22.36
2023-05-02T07:46:43.880Z,22.37
2023-05-02T07:47:44.791Z,22.37
2023-05-02T07:48:43.798Z,22.37
2023-05-02T07:49:43.811Z,22.37
2023-05-02T07:50:43.775Z,22.38
2023-05-02T07:51:43.770Z,22.39
2023-05-02T07:52:44.140Z,22.39
2023-05-02T07:53:43.725Z,22.39
2023-05-02T07:54:43.733Z,22.39
2023-05-02T07:55:43.726Z,22.40
2023-05-02T07:56:43.771Z,22.42
2023-05-02T07:57:44.140Z,22.45
2023-05-02T07:58:43.718Z,22.45
2023-05-02T07:59:44.141Z,22.46
2023-05-02T08:00:43.718Z,22.47
2023-05-02T08:01:43.709Z,22.49
2023-05-02T08:02:43.799Z,22.50
2023-05-02T08:03:44.218Z,22.52
2023-05-02T08:04:44.163Z,22.53
2023-05-02T08:05:43.683Z,22.54
2023-05-02T08:06:43.740Z,22.55
2023-05-02T08:07:44.136Z,22.56
2023-05-02T08:08:43.697Z,22.58
2023-05-02T08:09:43.692Z,22.57
2023-05-02T08:10:43.667Z,22.59
2023-05-02T08:11:43.658Z,22.60
2023-05-02T08:12:43.687Z,22.61
2023-05-02T08:13:43.670Z,22.62
2023-05-02T08:14:43.678Z,22.63
2023-05-02T08:15:43.703Z,22.64
2023-05-02T08:16:46.118Z,22.66
2023-05-02T08:17:43.688Z,22.65
2023-05-02T08:18:44.638Z,22.67
2023-05-02T08:19:44.148Z,22.67
2023-05-02T08:20:43.638Z,22.67
2023-05-02T08:21:43.641Z,22.69
2023-05-02T08:22:43.637Z,22.70
2023-05-02T08:23:43.652Z,22.71
2023-05-02T08:24:43.626Z,22.72
2023-05-02T08:25:43.582Z,22.73
2023-05-02T08:26:43.578Z,22.74
2023-05-02T08:27:43.659Z,22.73
2023-05-02T08:28:43.594Z,22.74
2023-05-02T08:29:43.614Z,22.76
2023-05-02T08:30:43.683Z,22.77
2023-05-02T08:31:43.781Z,22.76
2023-05-02T08:32:44.224Z,22.76
2023-05-02T08:33:44.442Z,22.77
2023-05-02T08:34:43.916Z,22.78
2023-05-02T08:35:43.986Z,22.77
2023-05-02T08:36:44.055Z,22.79
2023-05-02T08:37:44.150Z,22.79
2023-05-02T08:38:44.259Z,22.78
2023-05-02T08:39:44.206Z,22.78
2023-05-02T08:40:44.697Z,22.79
2023-05-02T08:41:44.298Z,22.80
2023-05-02T08:42:44.366Z,22.82
2023-05-02T08:43:44.448Z,22.83
2023-05-02T08:44:44.682Z,22.83
2023-05-02T08:45:44.545Z,22.84
2023-05-02T08:46:44.625Z,22.84
2023-05-02T08:47:44.746Z,22.86
2023-05-02T08:48:45.380Z,22.88
2023-05-02T08:49:44.747Z,22.89
2023-05-02T08:50:45.183Z,22.90
2023-05-02T08:51:44.852Z,22.89
2023-05-02T08:52:44.911Z,22.90
2023-05-02T08:53:44.979Z,22.91
2023-05-02T08:54:45.037Z,22.90
2023-05-02T08:55:45.156Z,22.92
2023-05-02T08:56:45.134Z,22.92
2023-05-02T08:57:45.196Z,22.92
2023-05-02T08:58:45.713Z,22.94
2023-05-02T08:59:45.260Z,22.94
2023-05-02T09:00:45.356Z,22.95
2023-05-02T09:01:45.479Z,22.96
2023-05-02T09:02:45.756Z,22.97
2023-05-02T09:03:45.426Z,22.98
2023-05-02T09:04:45.609Z,22.98
2023-05-02T09:05:45.660Z,23.00
2023-05-02T09:06:45.612Z,23.01
2023-05-02T09:07:45.688Z,23.02
2023-05-02T09:08:45.618Z,23.03
2023-05-02T09:09:45.652Z,23.04
2023-05-02T09:10:45.734Z,23.05
2023-05-02T09:11:46.176Z,23.05
2023-05-02T09:12:45.771Z,23.05
2023-05-02T09:13:45.805Z,23.05
2023-05-02T09:14:45.837Z,23.06
2023-05-02T09:15:46.181Z,23.07
2023-05-02T09:16:46.234Z,23.08
2023-05-02T09:17:46.000Z,23.09
2023-05-02T09:18:46.178Z,23.10
2023-05-02T09:19:46.009Z,23.12
2023-05-02T09:20:46.160Z,23.13
2023-05-02T09:21:46.072Z,23.14
2023-05-02T09:22:46.106Z,23.15
2023-05-02T09:23:46.164Z,23.15
2023-05-02T09:24:46.230Z,23.15
2023-05-02T09:25:46.661Z,23.16
2023-05-02T09:26:46.263Z,23.17
2023-05-02T09:27:46.743Z,23.17
2023-05-02T09:28:46.444Z,23.18
2023-05-02T09:29:46.300Z,23.19
2023-05-02T09:30:46.679Z,23.17
2023-05-02T09:31:55.767Z,23.17
2023-05-02T09:32:46.544Z,23.13
2023-05-02T09:33:46.341Z,23.12
2023-05-02T09:34:47.372Z,23.09
2023-05-02T09:35:46.699Z,23.05
2023-05-02T09:36:46.696Z,23.04
2023-05-02T09:37:46.272Z,23.01
2023-05-02T09:38:46.889Z,22.99
2023-05-02T09:39:46.797Z,22.96
2023-05-02T09:40:46.196Z,22.94
2023-05-02T09:41:46.185Z,22.93
2023-05-02T09:42:46.694Z,22.91
2023-05-02T09:43:46.279Z,22.89
2023-05-02T09:44:46.418Z,22.87
2023-05-02T09:45:46.358Z,22.85
2023-05-02T09:46:47.081Z,22.84
2023-05-02T09:47:46.768Z,22.83
2023-05-02T09:48:46.589Z,22.82
2023-05-02T09:49:46.907Z,22.81
2023-05-02T09:50:46.561Z,22.81
2023-05-02T09:51:46.599Z,22.80
2023-05-02T09:52:46.646Z,22.79
2023-05-02T09:53:47.176Z,22.78
2023-05-02T09:54:47.183Z,22.78
2023-05-02T09:55:46.796Z,22.77
2023-05-02T09:56:46.851Z,22.76
2023-05-02T09:57:46.903Z,22.75
2023-05-02T09:58:46.947Z,22.74
2023-05-02T09:59:46.998Z,22.74
2023-05-02T10:00:47.172Z,22.73
2023-05-02T10:01:47.138Z,22.72
2023-05-02T10:02:47.184Z,22.71
2023-05-02T10:03:47.913Z,22.71
2023-05-02T10:04:47.277Z,22.71
2023-05-02T10:05:47.310Z,22.70
2023-05-02T10:06:47.453Z,22.70
2023-05-02T10:07:47.437Z,22.69
2023-05-02T10:08:47.631Z,22.68
2023-05-02T10:09:47.565Z,22.68
2023-05-02T10:10:47.596Z,22.67
2023-05-02T10:11:47.680Z,22.67
2023-05-02T10:12:47.715Z,22.66
2023-05-02T10:13:48.188Z,22.65
2023-05-02T10:14:49.168Z,22.65
2023-05-02T10:15:47.954Z,22.64
2023-05-02T10:16:47.941Z,22.63
2023-05-02T10:17:48.134Z,22.62
2023-05-02T10:18:48.181Z,22.62
2023-05-02T10:19:48.225Z,22.61
2023-05-02T10:20:48.705Z,22.60
2023-05-02T10:21:48.253Z,22.61
2023-05-02T10:22:48.299Z,22.61
2023-05-02T10:23:48.683Z,22.60
2023-05-02T10:24:48.425Z,22.60
2023-05-02T10:25:48.471Z,22.60
2023-05-02T10:26:48.517Z,22.59
2023-05-02T10:27:48.570Z,22.58
2023-05-02T10:28:48.694Z,22.57
2023-05-02T10:29:48.644Z,22.57
2023-05-02T10:30:49.184Z,22.56
2023-05-02T10:31:48.776Z,22.56
2023-05-02T10:32:48.765Z,22.55
2023-05-02T10:33:48.798Z,22.56
2023-05-02T10:34:48.846Z,22.56
2023-05-02T10:35:49.183Z,22.56
2023-05-02T10:36:48.962Z,22.55
2023-05-02T10:37:48.999Z,22.54
2023-05-02T10:38:49.057Z,22.54
2023-05-02T10:39:49.076Z,22.54
2023-05-02T10:40:49.186Z,22.54
2023-05-02T10:41:49.145Z,22.54
2023-05-02T10:42:49.180Z,22.53
2023-05-02T10:43:49.215Z,22.53
2023-05-02T10:44:49.735Z,22.53
2023-05-02T10:45:49.309Z,22.52
2023-05-02T10:46:49.738Z,22.52
2023-05-02T10:47:49.463Z,22.51
2023-05-02T10:48:49.687Z,22.51
2023-05-02T10:49:49.445Z,22.51
2023-05-02T10:50:49.688Z,22.51
2023-05-02T10:51:49.505Z,22.51
2023-05-02T10:52:49.524Z,22.50
2023-05-02T10:53:49.692Z,22.50
2023-05-02T10:54:49.532Z,22.50
2023-05-02T10:55:49.539Z,22.50
2023-05-02T10:56:49.542Z,22.50
2023-05-02T10:57:49.544Z,22.50
2023-05-02T10:58:49.540Z,22.50
2023-05-02T10:59:49.559Z,22.50
2023-05-02T11:00:49.719Z,22.50
2023-05-02T11:01:49.659Z,22.49
2023-05-02T11:02:49.678Z,22.50
2023-05-02T11:03:49.617Z,22.49
2023-05-02T11:04:49.633Z,22.49
2023-05-02T11:05:49.691Z,22.48
2023-05-02T11:06:49.782Z,22.49
2023-05-02T11:07:49.701Z,22.49
2023-05-02T11:08:49.719Z,22.48
2023-05-02T11:09:49.683Z,22.48
2023-05-02T11:10:50.228Z,22.48
2023-05-02T11:11:50.281Z,22.49
2023-05-02T11:12:49.819Z,22.49
2023-05-02T11:13:50.196Z,22.48
2023-05-02T11:14:50.196Z,22.48
2023-05-02T11:15:49.795Z,22.46
2023-05-02T11:16:49.896Z,22.45
2023-05-02T11:17:49.808Z,22.42
2023-05-02T11:18:50.196Z,22.40
2023-05-02T11:19:49.816Z,22.40
2023-05-02T11:20:50.207Z,22.39
2023-05-02T11:21:49.839Z,22.38
2023-05-02T11:22:49.847Z,22.36
2023-05-02T11:23:50.226Z,22.36
2023-05-02T11:24:49.883Z,22.36
2023-05-02T11:25:50.203Z,22.34
2023-05-02T11:26:49.869Z,22.34
2023-05-02T11:27:49.891Z,22.34
2023-05-02T11:28:50.198Z,22.34
2023-05-02T11:29:49.899Z,22.34
2023-05-02T11:30:49.912Z,22.36
2023-05-02T11:31:50.016Z,22.38
2023-05-02T11:32:50.057Z,22.39
2023-05-02T11:33:49.918Z,22.41
2023-05-02T11:34:49.912Z,22.42
2023-05-02T11:35:50.222Z,22.43
2023-05-02T11:36:49.920Z,22.42
2023-05-02T11:37:49.904Z,22.42
2023-05-02T11:38:50.632Z,22.42
2023-05-02T11:39:49.895Z,22.44
2023-05-02T11:40:49.919Z,22.45
2023-05-02T11:41:49.889Z,22.46
2023-05-02T11:42:49.880Z,22.47
2023-05-02T11:43:50.205Z,22.47
2023-05-02T11:44:49.887Z,22.47
2023-05-02T11:45:49.868Z,22.49
2023-05-02T11:46:49.974Z,22.51
2023-05-02T11:47:53.070Z,22.50
2023-05-02T11:48:49.851Z,22.54
2023-05-02T11:49:50.214Z,22.56
2023-05-02T11:50:50.667Z,22.60
2023-05-02T11:51:49.817Z,22.62
2023-05-02T11:52:50.217Z,22.66
2023-05-02T11:53:49.802Z,22.67
2023-05-02T11:54:50.807Z,22.71
2023-05-02T11:55:50.213Z,22.73
2023-05-02T11:56:49.781Z,22.76
2023-05-02T11:57:49.738Z,22.79
2023-05-02T11:58:49.786Z,22.81
2023-05-02T11:59:49.852Z,22.84
2023-05-02T12:00:50.221Z,22.86
2023-05-02T12:01:49.958Z,22.89
2023-05-02T12:02:50.150Z,22.92
2023-05-02T12:03:50.330Z,22.94
2023-05-02T12:04:50.099Z,22.98
2023-05-02T12:05:50.202Z,23.01
2023-05-02T12:06:50.221Z,23.03
2023-05-02T12:07:50.744Z,23.06
2023-05-02T12:08:50.282Z,23.08
2023-05-02T12:09:51.320Z,23.11
2023-05-02T12:10:50.927Z,23.14
2023-05-02T12:11:50.352Z,23.15
2023-05-02T12:12:50.431Z,23.17
2023-05-02T12:13:50.970Z,23.20
2023-05-02T12:14:50.737Z,23.21
2023-05-02T12:15:50.941Z,23.24
2023-05-02T12:16:50.554Z,23.25
2023-05-02T12:17:50.645Z,23.28
2023-05-02T12:18:50.743Z,23.29
2023-05-02T12:19:50.535Z,23.30
2023-05-02T12:20:50.528Z,23.31
2023-05-02T12:21:50.549Z,23.32
2023-05-02T12:22:50.756Z,23.33
2023-05-02T12:23:50.721Z,23.35
2023-05-02T12:24:50.897Z,23.35
2023-05-02T12:25:50.900Z,23.35
2023-05-02T12:26:51.845Z,23.36
2023-05-02T12:27:50.592Z,23.37
2023-05-02T12:28:51.341Z,23.38
2023-05-02T12:29:50.941Z,23.38
2023-05-02T12:30:51.127Z,23.39
2023-05-02T12:31:51.029Z,23.39
2023-05-02T12:32:51.197Z,23.40
2023-05-02T12:33:51.073Z,23.41
2023-05-02T12:34:50.437Z,23.43
2023-05-02T12:35:50.723Z,23.43
2023-05-02T12:36:50.386Z,23.45
2023-05-02T12:37:50.352Z,23.46
2023-05-02T12:38:50.337Z,23.47
2023-05-02T12:39:50.311Z,23.48
2023-05-02T12:40:50.339Z,23.48
2023-05-02T12:41:50.269Z,23.50
2023-05-02T12:42:50.320Z,23.50
2023-05-02T12:43:50.255Z,23.51
2023-05-02T12:44:50.269Z,23.51
2023-05-02T12:45:50.201Z,23.52
2023-05-02T12:46:51.186Z,23.53
2023-05-02T12:47:50.219Z,23.54
2023-05-02T12:48:50.116Z,23.55
2023-05-02T12:49:50.234Z,23.56
2023-05-02T12:50:50.087Z,23.56
2023-05-02T12:51:50.056Z,23.56
2023-05-02T12:52:50.074Z,23.56